createdAt,value
2022-12-13T00:01:32.440Z,99262.28
2022-12-13T00:04:03.735Z,99259.78
2022-12-13T00:06:32.234Z,99257.88
2022-12-13T00:09:01.187Z,99248.91
2022-12-13T00:11:29.578Z,99243.56
2022-12-13T00:13:57.751Z,99250.03
2022-12-13T00:16:27.692Z,99235.00
2022-12-13T00:18:57.505Z,99235.81
2022-12-13T00:21:29.196Z,99222.34
2022-12-13T00:23:57.715Z,99223.97
2022-12-13T00:26:30.165Z,99230.28
2022-12-13T00:29:00.707Z,99225.06
2022-12-13T00:34:19.878Z,99231.28
2022-12-13T00:36:49.933Z,99232.38
2022-12-13T00:39:19.181Z,99233.19
2022-12-13T00:41:47.865Z,99229.53
2022-12-13T00:44:16.010Z,99230.53
2022-12-13T00:46:44.645Z,99233.50
2022-12-13T00:49:14.119Z,99235.41
2022-12-13T00:51:42.297Z,99222.00
2022-12-13T00:54:12.214Z,99225.56
2022-12-13T00:56:40.344Z,99215.63
2022-12-13T00:59:08.733Z,99215.63
2022-12-13T01:01:37.873Z,99217.19
2022-12-13T01:04:07.100Z,99223.63
2022-12-13T01:06:38.113Z,99215.81
2022-12-13T01:09:07.797Z,99212.25
2022-12-13T01:11:37.224Z,99213.00
2022-12-13T01:14:05.246Z,99228.56
2022-12-13T01:16:33.582Z,99233.00
2022-12-13T01:19:01.934Z,99227.53
2022-12-13T01:21:30.029Z,99232.81
2022-12-13T01:24:02.078Z,99230.28
2022-12-13T01:26:30.568Z,99235.66
2022-12-13T01:29:00.194Z,99233.16
2022-12-13T01:31:28.505Z,99234.19
2022-12-13T01:33:56.398Z,99248.47
2022-12-13T01:36:27.498Z,99244.06
2022-12-13T01:38:58.524Z,99252.22
2022-12-13T01:41:28.890Z,99256.38
2022-12-13T01:44:03.122Z,99242.31
2022-12-13T01:46:33.046Z,99252.13
2022-12-13T01:49:05.564Z,99252.13
2022-12-13T01:51:51.983Z,99254.03
2022-12-13T01:54:34.041Z,99260.16
2022-12-13T01:57:06.009Z,99260.44
2022-12-13T01:59:36.706Z,99253.03
2022-12-13T02:02:05.676Z,99255.28
2022-12-13T02:04:43.747Z,99255.13
2022-12-13T02:07:23.260Z,99251.69
2022-12-13T02:09:56.690Z,99257.09
2022-12-13T02:12:29.546Z,99253.28
2022-12-13T02:15:01.768Z,99255.19
2022-12-13T02:17:45.352Z,99255.34
2022-12-13T02:21:02.161Z,99240.03
2022-12-13T02:24:09.067Z,99248.84
2022-12-13T02:26:57.718Z,99255.94
2022-12-13T02:29:58.359Z,99246.97
2022-12-13T02:32:33.082Z,99246.84
2022-12-13T02:35:07.405Z,99244.03
2022-12-13T02:37:48.912Z,99256.09
2022-12-13T02:40:24.888Z,99255.28
2022-12-13T02:43:01.718Z,99248.25
2022-12-13T02:45:33.616Z,99256.34
2022-12-13T02:48:06.158Z,99258.97
2022-12-13T02:50:35.688Z,99250.91
2022-12-13T02:53:04.449Z,99253.88
2022-12-13T02:55:35.844Z,99250.38
2022-12-13T02:58:03.766Z,99251.25
2022-12-13T03:00:44.336Z,99253.22
2022-12-13T03:03:27.210Z,99243.25
2022-12-13T03:06:23.480Z,99246.13
2022-12-13T03:09:07.641Z,99243.56
2022-12-13T03:12:08.079Z,99248.94
2022-12-13T03:14:40.735Z,99253.28
2022-12-13T03:17:10.752Z,99250.59
2022-12-13T03:19:40.233Z,99254.41
2022-12-13T03:22:08.820Z,99258.66
2022-12-13T03:24:36.791Z,99246.13
2022-12-13T03:27:05.633Z,99251.19
2022-12-13T03:29:33.482Z,99262.97
2022-12-13T03:32:01.379Z,99261.84
2022-12-13T03:34:44.689Z,99261.91
2022-12-13T03:37:14.999Z,99263.78
2022-12-13T03:39:43.050Z,99251.19
2022-12-13T03:42:10.961Z,99262.13
2022-12-13T03:44:39.304Z,99265.53
2022-12-13T03:47:07.759Z,99268.56
2022-12-13T03:49:35.933Z,99272.38
2022-12-13T03:52:03.821Z,99278.31
2022-12-13T03:54:33.397Z,99274.88
2022-12-13T03:57:01.502Z,99273.84
2022-12-13T03:59:29.400Z,99277.44
2022-12-13T04:01:57.284Z,99274.66
2022-12-13T04:04:25.315Z,99277.56
2022-12-13T04:06:53.392Z,99291.97
2022-12-13T04:09:21.392Z,99284.91
2022-12-13T04:12:08.510Z,99283.22
2022-12-13T04:14:36.430Z,99280.22
2022-12-13T04:17:04.294Z,99277.56
2022-12-13T04:19:32.144Z,99284.88
2022-12-13T04:22:02.076Z,99299.19
2022-12-13T04:24:32.405Z,99292.94
2022-12-13T04:27:03.065Z,99284.72
2022-12-13T04:29:34.205Z,99288.44
2022-12-13T04:32:04.408Z,99281.97
2022-12-13T04:34:37.235Z,99281.25
2022-12-13T04:37:06.106Z,99277.53
2022-12-13T04:39:34.829Z,99273.41
2022-12-13T04:42:05.143Z,99255.50
2022-12-13T04:44:36.752Z,99259.38
2022-12-13T04:47:05.405Z,99254.03
2022-12-13T04:49:33.394Z,99248.41
2022-12-13T04:52:02.237Z,99247.75
2022-12-13T04:54:36.000Z,99249.22
2022-12-13T04:57:08.880Z,99250.94
2022-12-13T04:59:37.287Z,99253.56
2022-12-13T05:02:06.565Z,99254.50
2022-12-13T05:04:34.550Z,99259.81
2022-12-13T05:07:02.841Z,99254.38
2022-12-13T05:09:31.075Z,99265.16
2022-12-13T05:12:01.572Z,99253.56
2022-12-13T05:14:31.665Z,99261.59
2022-12-13T05:17:00.084Z,99258.97
2022-12-13T05:19:30.663Z,99264.66
2022-12-13T05:22:01.244Z,99256.03
2022-12-13T05:24:31.240Z,99255.41
2022-12-13T05:26:59.870Z,99261.66
2022-12-13T05:29:30.782Z,99251.88
2022-12-13T05:32:00.406Z,99255.31
2022-12-13T05:34:28.477Z,99255.22
2022-12-13T05:36:56.349Z,99251.00
2022-12-13T05:39:28.852Z,99258.31
2022-12-13T05:42:02.268Z,99257.56
2022-12-13T05:44:31.652Z,99255.66
2022-12-13T05:47:01.892Z,99243.25
2022-12-13T05:49:32.247Z,99242.31
2022-12-13T05:52:00.411Z,99245.78
2022-12-13T05:54:28.436Z,99244.97
2022-12-13T05:56:56.625Z,99244.97
2022-12-13T05:59:24.751Z,99260.00
2022-12-13T06:01:52.835Z,99262.84
2022-12-13T06:04:23.399Z,99265.47
2022-12-13T06:06:51.925Z,99262.53
2022-12-13T06:09:20.120Z,99272.53
2022-12-13T06:11:48.235Z,99291.81
2022-12-13T06:14:22.154Z,99280.03
2022-12-13T06:16:51.698Z,99284.69
2022-12-13T06:19:20.060Z,99287.06
2022-12-13T06:21:49.410Z,99283.53
2022-12-13T06:24:18.784Z,99281.69
2022-12-13T06:26:46.935Z,99286.03
2022-12-13T06:29:23.734Z,99296.19
2022-12-13T06:32:01.000Z,99279.09
2022-12-13T06:34:30.273Z,99293.34
2022-12-13T06:37:01.052Z,99289.16
2022-12-13T06:39:32.516Z,99294.28
2022-12-13T06:42:01.948Z,99297.94
2022-12-13T06:44:30.140Z,99288.03
2022-12-13T06:47:11.433Z,99288.81
2022-12-13T06:49:43.612Z,99295.28
2022-12-13T06:52:14.356Z,99299.69
2022-12-13T06:54:43.131Z,99308.28
2022-12-13T06:57:11.958Z,99310.34
2022-12-13T06:59:40.900Z,99302.09
2022-12-13T07:02:15.332Z,99309.41
2022-12-13T07:04:53.630Z,99301.47
2022-12-13T07:07:23.640Z,99309.41
2022-12-13T07:09:51.604Z,99335.13
2022-12-13T07:12:20.935Z,99321.91
2022-12-13T07:14:49.053Z,99327.97
2022-12-13T07:17:32.448Z,99315.50
2022-12-13T07:20:03.601Z,99325.38
2022-12-13T07:22:34.984Z,99328.78
2022-12-13T07:25:05.330Z,99336.91
2022-12-13T07:27:34.224Z,99334.88
2022-12-13T07:30:02.313Z,99348.25
2022-12-13T07:32:30.859Z,99353.75
2022-12-13T07:34:58.818Z,99341.13
2022-12-13T07:37:30.277Z,99348.97
2022-12-13T07:40:04.445Z,99355.25
2022-12-13T07:42:32.918Z,99358.69
2022-12-13T07:45:00.796Z,99360.31
2022-12-13T07:47:30.630Z,99355.66
2022-12-13T07:49:58.869Z,99357.34
2022-12-13T07:52:26.851Z,99372.50
2022-12-13T07:54:54.724Z,99377.06
2022-12-13T07:57:24.123Z,99383.94
2022-12-13T07:59:52.069Z,99372.25
2022-12-13T08:02:20.234Z,99383.88
2022-12-13T08:04:54.974Z,99381.16
2022-12-13T08:07:23.245Z,99389.94
2022-12-13T08:09:53.099Z,99377.53
2022-12-13T08:12:22.684Z,99380.13
2022-12-13T08:14:53.256Z,99362.41
2022-12-13T08:17:22.128Z,99349.75
2022-12-13T08:19:49.969Z,99321.69
2022-12-13T08:22:24.043Z,99321.97
2022-12-13T08:24:52.455Z,99329.28
2022-12-13T08:27:20.587Z,99343.56
2022-12-13T08:29:48.457Z,99379.38
2022-12-13T08:32:17.918Z,99412.88
2022-12-13T08:34:46.877Z,99435.38
2022-12-13T08:37:14.827Z,99466.75
2022-12-13T08:39:42.791Z,99486.38
2022-12-13T08:42:16.330Z,99500.28
2022-12-13T08:44:45.413Z,99498.22
2022-12-13T08:47:23.015Z,99517.06
2022-12-13T08:49:54.383Z,99514.59
2022-12-13T08:52:24.031Z,99505.66
2022-12-13T08:54:52.271Z,99510.88
2022-12-13T08:57:20.216Z,99505.25
2022-12-13T08:59:48.232Z,99510.03
2022-12-13T09:02:16.624Z,99501.53
2022-12-13T09:04:44.622Z,99489.84
2022-12-13T09:07:14.204Z,99498.50
2022-12-13T09:09:42.144Z,99521.91
2022-12-13T09:12:29.799Z,99535.59
2022-12-13T09:15:01.570Z,99572.25
2022-12-13T09:17:37.277Z,99604.22
2022-12-13T09:20:10.137Z,99609.47
2022-12-13T09:23:01.871Z,99612.31
2022-12-13T09:25:37.172Z,99630.53
2022-12-13T09:28:07.934Z,99620.88
2022-12-13T09:30:36.108Z,99612.00
2022-12-13T09:33:18.186Z,99604.44
2022-12-13T09:35:52.559Z,99602.78
2022-12-13T09:38:22.211Z,99603.75
2022-12-13T09:40:58.441Z,99586.19
2022-12-13T09:43:33.539Z,99586.41
2022-12-13T09:46:23.289Z,99575.16
2022-12-13T09:49:01.853Z,99563.72
2022-12-13T09:51:43.795Z,99565.69
2022-12-13T09:54:19.755Z,99573.53
2022-12-13T09:56:51.191Z,99558.94
2022-12-13T09:59:21.395Z,99549.56
2022-12-13T10:01:49.645Z,99550.97
2022-12-13T10:04:18.093Z,99537.75
2022-12-13T10:06:46.022Z,99536.06
2022-12-13T10:09:15.566Z,99534.22
2022-12-13T10:11:53.788Z,99549.63
2022-12-13T10:14:28.825Z,99539.34
2022-12-13T10:16:59.050Z,99542.44
2022-12-13T10:19:34.524Z,99524.84
2022-12-13T10:22:05.787Z,99520.59
2022-12-13T10:24:50.234Z,99506.88
2022-12-13T10:27:22.253Z,99534.06
2022-12-13T10:30:10.683Z,99517.41
2022-12-13T10:32:47.241Z,99511.88
2022-12-13T10:35:25.104Z,99519.16
2022-12-13T10:37:53.189Z,99509.19
2022-12-13T10:40:33.338Z,99507.28
2022-12-13T10:43:17.255Z,99510.75
2022-12-13T10:45:58.059Z,99489.97
2022-12-13T10:48:38.913Z,99492.97
2022-12-13T10:51:10.462Z,99490.03
2022-12-13T10:53:47.891Z,99475.72
2022-12-13T10:56:23.328Z,99484.81
2022-12-13T10:59:17.002Z,99484.44
2022-12-13T11:01:45.575Z,99483.84
2022-12-13T11:04:27.602Z,99468.53
2022-12-13T11:06:57.584Z,99473.34
2022-12-13T11:09:28.669Z,99473.34
2022-12-13T11:11:59.542Z,99477.47
2022-12-13T11:14:32.749Z,99477.91
2022-12-13T11:17:08.857Z,99480.25
2022-12-13T11:19:40.256Z,99483.97
2022-12-13T11:22:09.781Z,99498.91
2022-12-13T11:24:42.201Z,99500.09
2022-12-13T11:27:27.867Z,99508.50
2022-12-13T11:30:13.992Z,99511.75
2022-12-13T11:33:09.845Z,99523.69
2022-12-13T11:35:52.398Z,99532.38
2022-12-13T11:38:29.604Z,99547.81
2022-12-13T11:41:03.997Z,99568.75
2022-12-13T11:43:38.902Z,99579.50
2022-12-13T11:46:32.785Z,99576.31
2022-12-13T11:49:05.826Z,99567.03
2022-12-13T11:51:42.077Z,99561.78
2022-12-13T11:54:23.997Z,99558.38
2022-12-13T11:57:00.600Z,99566.91
2022-12-13T11:59:40.219Z,99555.13
2022-12-13T12:02:21.524Z,99560.06
2022-12-13T12:04:58.307Z,99565.13
2022-12-13T12:07:34.222Z,99575.59
2022-12-13T12:10:19.409Z,99592.19
2022-12-13T12:12:53.225Z,99608.56
2022-12-13T12:15:26.766Z,99624.44
2022-12-13T12:17:57.364Z,99615.56
2022-12-13T12:20:34.931Z,99606.09
2022-12-13T12:23:13.575Z,99613.75
2022-12-13T12:25:47.867Z,99604.69
2022-12-13T12:28:29.713Z,99608.91
2022-12-13T12:31:11.482Z,99606.78
2022-12-13T12:33:52.588Z,99621.50
2022-12-13T12:36:36.088Z,99610.47
2022-12-13T12:39:28.493Z,99620.50
2022-12-13T12:42:17.735Z,99621.16
2022-12-13T12:45:00.854Z,99613.53
2022-12-13T12:48:29.216Z,99636.41
2022-12-13T12:50:42.832Z,99636.41
2022-12-13T12:53:37.343Z,99646.06
2022-12-13T12:56:19.120Z,99646.34
2022-12-13T12:58:54.228Z,99648.69
2022-12-13T13:01:44.192Z,99677.91
2022-12-13T13:04:22.806Z,99683.75
2022-12-13T13:07:01.487Z,99692.84
2022-12-13T13:09:31.865Z,99675.56
2022-12-13T13:12:09.600Z,99686.09
2022-12-13T13:14:51.868Z,99658.28
2022-12-13T13:17:48.465Z,99676.63
2022-12-13T13:20:23.584Z,99691.03
2022-12-13T13:23:17.442Z,99694.94
2022-12-13T13:26:07.817Z,99716.00
2022-12-13T13:28:32.908Z,99695.50
2022-12-13T13:31:07.994Z,99706.19
2022-12-13T13:33:46.037Z,99687.81
2022-12-13T13:36:47.696Z,99703.28
2022-12-13T13:39:19.457Z,99690.25
2022-12-13T13:42:09.646Z,99692.84
2022-12-13T13:45:10.525Z,99697.28
2022-12-13T13:47:41.871Z,99691.53
2022-12-13T13:50:43.323Z,99672.41
2022-12-13T13:53:37.873Z,99678.75
2022-12-13T13:56:28.458Z,99676.38
2022-12-13T13:59:38.139Z,99690.63
2022-12-13T14:02:50.880Z,99703.91
2022-12-13T14:06:00.732Z,99685.66
2022-12-13T14:08:47.009Z,99690.75
2022-12-13T14:11:49.935Z,99693.91
2022-12-13T14:15:08.151Z,99702.47
2022-12-13T14:18:21.794Z,99687.22
2022-12-13T14:21:07.983Z,99671.66
2022-12-13T14:23:58.055Z,99676.03
2022-12-13T14:26:41.474Z,99670.31
2022-12-13T14:29:15.975Z,99664.91
2022-12-13T14:31:46.450Z,99661.28
2022-12-13T14:34:22.675Z,99649.06
2022-12-13T14:36:58.828Z,99649.56
2022-12-13T14:39:29.403Z,99631.63
2022-12-13T14:41:59.518Z,99619.38
2022-12-13T14:44:30.732Z,99624.03
2022-12-13T14:47:01.647Z,99633.69
2022-12-13T14:49:32.699Z,99624.94
2022-12-13T14:52:06.835Z,99624.22
2022-12-13T14:54:42.679Z,99607.72
2022-12-13T14:57:18.196Z,99606.28
2022-12-13T14:59:50.674Z,99586.88
2022-12-13T15:02:30.239Z,99562.78
2022-12-13T15:05:01.286Z,99562.38
2022-12-13T15:07:33.343Z,99540.34
2022-12-13T15:10:05.118Z,99522.50
2022-12-13T15:12:33.982Z,99514.03
2022-12-13T15:15:05.227Z,99508.06
2022-12-13T15:17:35.715Z,99517.06
2022-12-13T15:20:26.098Z,99497.69
2022-12-13T15:23:02.891Z,99471.34
2022-12-13T15:25:36.065Z,99473.19
2022-12-13T15:28:05.117Z,99455.50
2022-12-13T15:30:36.666Z,99444.94
2022-12-13T15:33:07.091Z,99428.31
2022-12-13T15:35:37.588Z,99413.81
2022-12-13T15:38:05.771Z,99404.25
2022-12-13T15:40:35.053Z,99385.56
2022-12-13T15:43:03.220Z,99377.59
2022-12-13T15:45:37.109Z,99383.94
2022-12-13T15:48:07.041Z,99374.88
2022-12-13T15:50:37.044Z,99376.78
2022-12-13T15:53:07.737Z,99361.78
2022-12-13T15:55:37.791Z,99338.84
2022-12-13T15:58:25.696Z,99330.88
2022-12-13T16:00:53.920Z,99334.97
2022-12-13T16:03:26.858Z,99318.16
2022-12-13T16:05:57.163Z,99305.72
2022-12-13T16:08:30.995Z,99297.81
2022-12-13T16:10:59.436Z,99289.13
2022-12-13T16:13:29.734Z,99292.44
2022-12-13T16:15:59.771Z,99287.81
2022-12-13T16:18:34.612Z,99280.56
2022-12-13T16:21:02.578Z,99274.19
2022-12-13T16:23:30.632Z,99272.34
2022-12-13T16:25:58.693Z,99265.72
2022-12-13T16:28:27.626Z,99265.13
2022-12-13T16:31:04.999Z,99266.31
2022-12-13T16:33:34.746Z,99269.00
2022-12-13T16:36:02.979Z,99267.28
2022-12-13T16:38:30.876Z,99263.69
2022-12-13T16:41:08.257Z,99263.66
2022-12-13T16:43:41.127Z,99268.22
2022-12-13T16:47:14.235Z,99261.19
2022-12-13T16:49:08.029Z,99260.25
2022-12-13T16:51:36.017Z,99252.44
2022-12-13T16:54:04.416Z,99254.03
2022-12-13T16:56:32.285Z,99246.47
2022-12-13T16:59:00.168Z,99254.66
2022-12-13T17:01:28.210Z,99258.41
2022-12-13T17:03:56.222Z,99259.59
2022-12-13T17:06:26.157Z,99252.38
2022-12-13T17:08:53.953Z,99263.59
2022-12-13T17:11:22.228Z,99252.06
2022-12-13T17:13:50.668Z,99249.47
2022-12-13T17:16:18.510Z,99244.16
2022-12-13T17:18:46.688Z,99241.75
2022-12-13T17:21:14.572Z,99231.69
2022-12-13T17:23:43.998Z,99234.41
2022-12-13T17:26:13.165Z,99229.25
2022-12-13T17:28:41.411Z,99226.00
2022-12-13T17:31:12.032Z,99243.16
2022-12-13T17:33:40.396Z,99231.28
2022-12-13T17:36:09.763Z,99229.44
2022-12-13T17:38:38.319Z,99235.16
2022-12-13T17:41:07.899Z,99225.56
2022-12-13T17:43:35.993Z,99221.31
2022-12-13T17:46:05.270Z,99219.53
2022-12-13T17:48:39.830Z,99217.88
2022-12-13T17:51:09.713Z,99217.94
2022-12-13T17:53:39.488Z,99207.25
2022-12-13T17:56:12.075Z,99202.50
2022-12-13T17:58:40.313Z,99197.19
2022-12-13T18:01:13.231Z,99200.75
2022-12-13T18:03:41.320Z,99201.75
2022-12-13T18:06:09.622Z,99219.94
2022-12-13T18:08:39.343Z,99212.72
2022-12-13T18:11:31.941Z,99208.28
2022-12-13T18:13:57.776Z,99207.66
2022-12-13T18:16:33.984Z,99199.41
2022-12-13T18:19:05.856Z,99202.41
2022-12-13T18:21:34.300Z,99201.59
2022-12-13T18:24:02.303Z,99202.22
2022-12-13T18:26:31.680Z,99198.97
2022-12-13T18:28:59.489Z,99191.00
2022-12-13T18:31:28.119Z,99207.41
2022-12-13T18:33:56.141Z,99187.69
2022-12-13T18:36:26.078Z,99194.47
2022-12-13T18:38:54.411Z,99185.22
2022-12-13T18:41:24.755Z,99182.50
2022-12-13T18:43:59.536Z,99186.19
2022-12-13T18:46:28.441Z,99179.13
2022-12-13T18:48:56.806Z,99172.03
2022-12-13T18:51:25.243Z,99171.34
2022-12-13T18:53:53.450Z,99169.50
2022-12-13T18:56:21.558Z,99170.44
2022-12-13T18:58:50.386Z,99163.28
2022-12-13T19:01:21.234Z,99159.97
2022-12-13T19:03:51.006Z,99150.28
2022-12-13T19:06:21.592Z,99154.47
2022-12-13T19:08:50.080Z,99152.06
2022-12-13T19:11:19.018Z,99154.13
2022-12-13T19:13:46.970Z,99150.75
2022-12-13T19:16:16.830Z,99148.72
2022-12-13T19:18:46.555Z,99145.34
2022-12-13T19:21:17.321Z,99138.50
2022-12-13T19:23:49.493Z,99133.38
2022-12-13T19:26:21.579Z,99136.59
2022-12-13T19:28:49.453Z,99134.13
2022-12-13T19:31:17.733Z,99136.03
2022-12-13T19:33:48.078Z,99131.72
2022-12-13T19:36:16.544Z,99131.09
2022-12-13T19:38:44.584Z,99121.16
2022-12-13T19:41:15.206Z,99117.72
2022-12-13T19:43:50.666Z,99116.94
2022-12-13T19:46:20.935Z,99118.03
2022-12-13T19:48:50.606Z,99113.94
2022-12-13T19:51:18.693Z,99117.41
2022-12-13T19:53:49.465Z,99105.06
2022-12-13T19:56:20.077Z,99090.81
2022-12-13T19:58:49.723Z,99083.31
2022-12-13T20:01:19.131Z,99086.19
2022-12-13T20:03:48.222Z,99079.75
2022-12-13T20:06:20.146Z,99073.59
2022-12-13T20:08:48.375Z,99068.22
2022-12-13T20:11:20.332Z,99068.13
2022-12-13T20:13:49.334Z,99071.00
2022-12-13T20:16:18.936Z,99050.69
2022-12-13T20:18:46.973Z,99044.53
2022-12-13T20:21:15.859Z,99038.28
2022-12-13T20:23:48.907Z,99026.66
2022-12-13T20:26:20.175Z,99028.50
2022-12-13T20:28:48.408Z,99023.09
2022-12-13T20:31:18.278Z,99045.13
2022-12-13T20:33:46.375Z,99040.75
2022-12-13T20:36:25.073Z,99039.09
2022-12-13T20:38:56.513Z,99031.22
2022-12-13T20:41:25.705Z,99023.09
2022-12-13T20:43:54.512Z,99009.19
2022-12-13T20:46:23.053Z,99001.22
2022-12-13T20:48:52.290Z,99003.16
2022-12-13T20:51:22.482Z,98992.63
2022-12-13T20:53:51.931Z,98984.81
2022-12-13T20:56:24.229Z,98983.03
2022-12-13T20:58:53.205Z,98968.06
2022-12-13T21:01:23.321Z,98964.50
2022-12-13T21:03:54.138Z,98966.19
2022-12-13T21:06:22.176Z,98966.09
2022-12-13T21:08:52.855Z,98966.00
2022-12-13T21:11:27.426Z,98975.69
2022-12-13T21:14:05.424Z,98955.38
2022-12-13T21:16:39.114Z,98955.06
2022-12-13T21:19:09.020Z,98972.63
2022-12-13T21:21:37.152Z,98969.66
2022-12-13T21:24:05.704Z,98968.56
2022-12-13T21:26:36.563Z,98967.50
2022-12-13T21:29:07.421Z,98966.38
2022-12-13T21:31:37.079Z,98979.25
2022-12-13T21:34:06.526Z,98976.41
2022-12-13T21:36:36.138Z,98981.19
2022-12-13T21:39:06.935Z,98966.88
2022-12-13T21:41:36.352Z,98958.94
2022-12-13T21:44:04.429Z,98959.06
2022-12-13T21:47:11.313Z,98951.00
2022-12-13T21:49:20.498Z,98947.63
2022-12-13T21:51:48.797Z,98946.41
2022-12-13T21:54:18.006Z,98940.06
2022-12-13T21:57:04.910Z,98928.41
2022-12-13T21:59:32.884Z,98937.53
2022-12-13T22:02:16.402Z,98950.47
2022-12-13T22:04:46.009Z,98942.59
2022-12-13T22:07:15.549Z,98940.84
2022-12-13T22:09:45.613Z,98934.88
2022-12-13T22:12:22.032Z,98940.59
2022-12-13T22:14:50.640Z,98940.50
2022-12-13T22:17:28.270Z,98930.03
2022-12-13T22:19:59.294Z,98938.97
2022-12-13T22:22:27.251Z,98932.91
2022-12-13T22:24:55.164Z,98937.41
2022-12-13T22:27:25.736Z,98927.59
2022-12-13T22:29:56.541Z,98922.59
2022-12-13T22:32:25.003Z,98919.25
2022-12-13T22:34:53.068Z,98926.47
2022-12-13T22:37:21.105Z,98930.88
2022-12-13T22:39:49.088Z,98916.88
2022-12-13T22:42:17.014Z,98931.19
2022-12-13T22:44:46.305Z,98918.97
2022-12-13T22:47:14.182Z,98916.00
2022-12-13T22:49:42.268Z,98915.94
2022-12-13T22:52:10.553Z,98921.97
2022-12-13T22:54:38.453Z,98928.56
2022-12-13T22:57:07.848Z,98934.72
2022-12-13T22:59:35.780Z,98939.69
2022-12-13T23:02:05.209Z,98937.56
2022-12-13T23:04:35.984Z,98925.84
2022-12-13T23:07:03.926Z,98929.66
2022-12-13T23:09:31.730Z,98930.09
2022-12-13T23:12:17.041Z,98928.44
2022-12-13T23:14:44.919Z,98930.59
2022-12-13T23:17:14.315Z,98922.66
2022-12-13T23:19:50.785Z,98927.94
2022-12-13T23:22:21.223Z,98929.06
2022-12-13T23:24:49.976Z,98935.09
2022-12-13T23:27:18.502Z,98928.75
2022-12-13T23:29:46.593Z,98917.97
2022-12-13T23:32:16.289Z,98928.81
2022-12-13T23:34:44.084Z,98919.69
2022-12-13T23:37:11.972Z,98921.97
2022-12-13T23:39:39.739Z,98923.25
2022-12-13T23:42:07.636Z,98913.91
2022-12-13T23:44:35.696Z,98911.97
2022-12-13T23:47:03.595Z,98907.41
2022-12-13T23:49:32.976Z,98900.31
2022-12-13T23:52:00.854Z,98895.94
2022-12-13T23:54:28.625Z,98891.94
2022-12-13T23:56:56.558Z,98891.63
2022-12-13T23:59:26.026Z,98875.66
